Time;durP1;ratioP1;P1;durP2;ratioP2;P2;SDS_P1;SDS_P2;PMS_P1;PMS_P2;Temp;Humidity;BMP_temperature;BMP_pressure;BME280_temperature;BME280_humidity;BME280_pressure;Samples;Min_cycle;Max_cycle;Signal;HPM_P1;HPM_P2
2021/05/04 00:03:30;;;;;;;4.40;4.00;;;14.90;47.10;;;;;;8277943;28;20211;-75
2021/05/04 00:07:31;;;;;;;4.50;3.90;;;14.90;46.90;;;;;;8309268;28;20211;-76
2021/05/04 00:11:35;;;;;;;3.63;3.20;;;14.90;46.80;;;;;;8326723;28;20212;-75
2021/05/04 00:15:39;;;;;;;3.90;3.57;;;15.00;46.60;;;;;;8314632;28;20438;-75
2021/05/04 00:19:43;;;;;;;6.23;3.93;;;15.10;46.70;;;;;;8288806;28;20572;-75
2021/05/04 00:23:44;;;;;;;3.83;3.53;;;15.10;46.70;;;;;;8276469;28;20454;-75
2021/05/04 00:27:48;;;;;;;6.70;3.00;;;15.10;46.50;;;;;;8320588;28;20205;-75
2021/05/04 00:31:52;;;;;;;4.43;4.03;;;15.10;46.60;;;;;;8293650;28;20462;-75
2021/05/04 00:35:55;;;;;;;8.80;3.47;;;15.20;46.60;;;;;;8299803;28;20457;-75
2021/05/04 00:39:56;;;;;;;3.50;3.20;;;15.20;46.80;;;;;;8326200;28;20185;-75
2021/05/04 00:44:00;;;;;;;3.30;3.00;;;15.10;47.00;;;;;;8330915;28;20537;-76
2021/05/04 00:48:01;;;;;;;9.37;4.73;;;15.10;46.80;;;;;;8312252;28;20453;-75
2021/05/04 00:52:02;;;;;;;3.50;3.10;;;15.10;47.10;;;;;;8308133;28;20688;-74
2021/05/04 00:56:03;;;;;;;3.57;3.27;;;15.10;46.90;;;;;;8286582;28;20445;-75
2021/05/04 01:00:05;;;;;;;16.03;3.67;;;15.10;46.90;;;;;;8320521;28;21178;-75
2021/05/04 01:04:07;;;;;;;4.90;3.33;;;15.10;46.70;;;;;;8308581;28;20445;-74
2021/05/04 01:08:08;;;;;;;6.30;4.23;;;15.10;47.00;;;;;;8306608;28;20452;-75
2021/05/04 01:12:08;;;;;;;3.87;3.57;;;15.10;47.20;;;;;;8285436;28;20492;-74
2021/05/04 01:16:09;;;;;;;3.07;2.80;;;15.00;47.30;;;;;;8300979;28;20191;-75
2021/05/04 01:20:17;;;;;;;3.40;3.10;;;15.00;47.50;;;;;;8281319;28;20246;-75
2021/05/04 01:24:21;;;;;;;3.73;3.33;;;15.00;47.40;;;;;;8318645;28;20434;-74
2021/05/04 01:28:23;;;;;;;5.07;3.10;;;14.90;47.50;;;;;;8283824;28;20457;-76
2021/05/04 01:32:28;;;;;;;3.20;3.00;;;14.90;47.50;;;;;;8301332;28;20219;-75
2021/05/04 01:36:30;;;;;;;3.13;2.90;;;14.90;47.60;;;;;;8289516;28;20453;-75
2021/05/04 01:40:31;;;;;;;4.10;3.20;;;14.90;47.80;;;;;;8303520;28;20200;-75
2021/05/04 01:44:36;;;;;;;4.60;3.43;;;14.80;48.30;;;;;;8316434;28;20453;-75
2021/05/04 01:48:40;;;;;;;3.63;3.43;;;14.80;48.10;;;;;;8323527;28;20496;-75
2021/05/04 01:52:41;;;;;;;4.83;2.50;;;14.80;48.40;;;;;;8303258;28;20823;-75
2021/05/04 01:56:41;;;;;;;3.80;3.50;;;14.80;48.20;;;;;;8291128;28;20205;-74
2021/05/04 02:00:42;;;;;;;2.70;2.60;;;14.80;48.30;;;;;;8283860;28;20347;-75
2021/05/04 02:04:45;;;;;;;3.03;2.70;;;14.70;48.50;;;;;;8303810;28;20198;-75
2021/05/04 02:08:48;;;;;;;2.50;2.40;;;14.70;48.20;;;;;;8309858;28;20206;-74
2021/05/04 02:12:52;;;;;;;3.33;3.03;;;14.70;48.40;;;;;;8311302;28;21009;-75
2021/05/04 02:16:58;;;;;;;3.27;2.70;;;14.70;48.40;;;;;;8302932;28;20458;-75
2021/05/04 02:20:59;;;;;;;5.50;2.67;;;14.70;48.30;;;;;;8319774;28;20933;-74
2021/05/04 02:25:08;;;;;;;3.37;2.53;;;14.70;48.30;;;;;;8295342;28;20442;-75
2021/05/04 02:29:09;;;;;;;3.13;2.40;;;14.70;48.30;;;;;;8308008;28;20518;-74
2021/05/04 02:33:13;;;;;;;2.90;2.70;;;14.70;48.40;;;;;;8286072;28;20473;-75
2021/05/04 02:37:17;;;;;;;3.53;2.10;;;14.70;47.50;;;;;;8324900;28;20235;-75
2021/05/04 02:41:18;;;;;;;2.40;2.20;;;14.70;45.80;;;;;;8303842;28;20466;-75
2021/05/04 02:45:22;;;;;;;6.13;3.57;;;14.80;45.50;;;;;;8317356;28;20197;-74
2021/05/04 02:49:30;;;;;;;3.47;2.10;;;14.80;45.10;;;;;;8306569;28;20454;-75
2021/05/04 02:53:35;;;;;;;4.63;2.70;;;14.90;44.60;;;;;;8314179;28;20453;-74
2021/05/04 02:57:49;;;;;;;3.60;1.90;;;14.90;45.30;;;;;;8323622;28;20444;-74
2021/05/04 03:01:49;;;;;;;2.30;2.10;;;14.80;46.00;;;;;;8308758;28;20453;-75
2021/05/04 03:05:54;;;;;;;4.70;2.13;;;14.60;47.00;;;;;;8310785;28;20443;-74
2021/05/04 03:09:54;;;;;;;4.53;1.93;;;14.30;51.00;;;;;;8306992;28;20197;-74
2021/05/04 03:13:55;;;;;;;4.80;1.80;;;13.90;53.40;;;;;;8298554;28;20477;-74
2021/05/04 03:17:56;;;;;;;4.93;2.27;;;13.40;56.80;;;;;;8299019;28;20279;-73
2021/05/04 03:21:59;;;;;;;2.30;2.10;;;12.90;60.80;;;;;;8304626;28;20222;-74
2021/05/04 03:26:00;;;;;;;2.30;2.10;;;12.50;61.70;;;;;;8317627;28;20188;-73
2021/05/04 03:30:05;;;;;;;2.10;1.90;;;12.20;64.70;;;;;;8331884;28;20448;-73
2021/05/04 03:34:05;;;;;;;3.43;2.10;;;12.00;66.30;;;;;;8316524;28;20479;-74
2021/05/04 03:38:06;;;;;;;5.20;2.63;;;11.80;68.00;;;;;;8316802;28;20443;-74
2021/05/04 03:42:07;;;;;;;4.83;2.37;;;11.70;67.30;;;;;;8313580;28;20202;-73
2021/05/04 03:46:07;;;;;;;4.93;2.87;;;11.60;70.20;;;;;;8314409;28;20278;-74
2021/05/04 03:50:11;;;;;;;2.23;2.00;;;11.50;71.80;;;;;;8308715;28;20202;-74
2021/05/04 03:54:12;;;;;;;7.53;1.93;;;11.40;72.60;;;;;;8314301;28;20257;-74
2021/05/04 03:58:14;;;;;;;5.43;1.90;;;11.30;70.60;;;;;;8308109;28;20451;-74
2021/05/04 04:02:18;;;;;;;1.93;1.83;;;11.30;70.70;;;;;;8312791;28;20192;-74
2021/05/04 04:06:19;;;;;;;3.43;2.20;;;11.20;71.70;;;;;;8304925;28;20458;-74
2021/05/04 04:10:19;;;;;;;2.37;2.17;;;11.20;71.80;;;;;;8303713;28;20455;-74
2021/05/04 04:14:24;;;;;;;1.70;1.60;;;11.20;72.60;;;;;;8297261;28;20314;-74
2021/05/04 04:18:32;;;;;;;2.23;1.80;;;11.20;71.50;;;;;;8330766;28;20255;-73
2021/05/04 04:22:34;;;;;;;3.47;2.30;;;11.10;71.80;;;;;;8300970;28;20457;-74
2021/05/04 04:26:35;;;;;;;2.20;2.00;;;11.10;72.20;;;;;;8288966;28;20203;-75
2021/05/04 04:30:35;;;;;;;3.97;1.93;;;11.10;72.70;;;;;;8309407;28;20464;-75
2021/05/04 04:34:36;;;;;;;2.40;2.23;;;11.00;72.80;;;;;;8304517;28;20218;-73
2021/05/04 04:38:43;;;;;;;3.50;2.40;;;11.00;73.10;;;;;;8309468;28;20532;-74
2021/05/04 04:42:43;;;;;;;8.33;2.67;;;11.10;73.90;;;;;;8308411;28;20223;-74
2021/05/04 04:46:46;;;;;;;1.80;1.70;;;11.10;73.90;;;;;;8306145;28;20457;-74
2021/05/04 04:50:47;;;;;;;7.00;2.40;;;11.10;73.70;;;;;;8298680;28;20203;-73
2021/05/04 04:54:52;;;;;;;3.47;2.60;;;11.10;73.40;;;;;;8305550;28;20568;-74
2021/05/04 04:58:52;;;;;;;3.53;2.30;;;11.10;74.10;;;;;;8326306;28;20194;-74
2021/05/04 05:02:53;;;;;;;2.73;2.47;;;11.00;74.00;;;;;;8308630;28;20519;-73
2021/05/04 05:06:55;;;;;;;1.93;1.83;;;11.00;74.60;;;;;;8284292;28;20230;-74
2021/05/04 05:10:57;;;;;;;2.80;1.97;;;11.00;75.30;;;;;;8306014;28;20210;-74
2021/05/04 05:15:03;;;;;;;2.47;2.30;;;11.00;75.10;;;;;;8303251;28;21130;-74
2021/05/04 05:19:06;;;;;;;3.43;1.80;;;11.10;75.50;;;;;;8322874;28;20466;-73
2021/05/04 05:23:07;;;;;;;2.97;1.30;;;11.00;75.90;;;;;;8304917;28;20474;-73
2021/05/04 05:27:10;;;;;;;6.90;4.70;;;11.10;76.00;;;;;;8302450;28;20505;-74
2021/05/04 05:31:11;;;;;;;5.20;1.67;;;11.10;76.30;;;;;;8304081;28;20204;-73
2021/05/04 05:35:16;;;;;;;2.00;1.80;;;11.20;75.80;;;;;;8304337;28;20479;-74
2021/05/04 05:39:17;;;;;;;1.90;1.80;;;11.20;76.20;;;;;;8325496;28;20435;-74
2021/05/04 05:43:18;;;;;;;14.20;1.97;;;11.20;75.90;;;;;;8283782;28;20466;-75
2021/05/04 05:47:19;;;;;;;3.20;1.90;;;11.30;76.50;;;;;;8306541;28;20450;-74
2021/05/04 05:51:19;;;;;;;8.53;2.83;;;11.40;76.00;;;;;;8295639;28;20562;-75
2021/05/04 05:55:20;;;;;;;2.20;1.93;;;11.40;76.60;;;;;;8307479;28;20207;-74
2021/05/04 05:59:21;;;;;;;2.40;2.20;;;11.40;76.70;;;;;;8305894;28;20618;-74
2021/05/04 06:03:23;;;;;;;2.17;1.97;;;11.50;76.70;;;;;;8299306;28;20192;-74
2021/05/04 06:07:34;;;;;;;3.20;1.77;;;11.60;76.40;;;;;;8325317;28;20223;-74
2021/05/04 06:11:35;;;;;;;1.80;1.60;;;11.60;77.00;;;;;;8309304;28;20815;-73
2021/05/04 06:15:39;;;;;;;4.30;2.23;;;11.80;77.10;;;;;;8308502;28;20470;-76
2021/05/04 06:19:43;;;;;;;2.07;1.47;;;11.90;77.10;;;;;;8307782;28;20527;-75
2021/05/04 06:23:44;;;;;;;3.20;1.67;;;12.00;76.90;;;;;;8308489;28;20450;-76
2021/05/04 06:27:45;;;;;;;2.20;2.00;;;12.00;76.80;;;;;;8285140;28;20509;-73
2021/05/04 06:31:53;;;;;;;2.57;1.47;;;12.10;77.20;;;;;;8305593;28;20439;-74
2021/05/04 06:35:54;;;;;;;3.30;1.90;;;12.10;77.40;;;;;;8293818;28;20465;-74
2021/05/04 06:39:55;;;;;;;3.93;1.60;;;12.10;77.70;;;;;;8291414;28;20447;-75
2021/05/04 06:44:03;;;;;;;1.83;1.73;;;12.10;77.80;;;;;;8308986;28;20661;-74
2021/05/04 06:48:05;;;;;;;1.70;1.60;;;12.30;78.30;;;;;;8307077;28;20458;-74
2021/05/04 06:52:06;;;;;;;1.40;1.30;;;12.30;77.80;;;;;;8312751;28;20477;-75
2021/05/04 06:56:14;;;;;;;2.93;1.93;;;12.20;77.90;;;;;;8325838;28;20450;-75
2021/05/04 07:00:15;;;;;;;6.33;3.37;;;12.30;78.20;;;;;;8307853;28;20461;-75
2021/05/04 07:04:17;;;;;;;1.80;1.67;;;12.30;78.50;;;;;;8309958;28;20931;-74
2021/05/04 07:08:18;;;;;;;2.30;1.47;;;12.40;78.00;;;;;;8290459;28;20486;-75
2021/05/04 07:12:19;;;;;;;1.67;1.57;;;12.40;78.00;;;;;;8306695;28;20462;-74
2021/05/04 07:16:20;;;;;;;2.00;1.80;;;12.60;78.50;;;;;;8274137;28;20202;-74
2021/05/04 07:20:23;;;;;;;1.53;1.43;;;12.80;77.80;;;;;;8294959;28;20255;-75
2021/05/04 07:24:24;;;;;;;2.67;1.67;;;13.00;77.40;;;;;;8296854;28;20886;-76
2021/05/04 07:28:27;;;;;;;6.60;1.30;;;13.10;77.70;;;;;;8303636;28;21065;-74
2021/05/04 07:32:27;;;;;;;1.97;1.87;;;13.10;76.70;;;;;;8300938;28;20210;-74
2021/05/04 07:36:30;;;;;;;1.90;1.80;;;13.00;76.90;;;;;;8302486;28;20470;-76
2021/05/04 07:40:31;;;;;;;1.43;1.33;;;13.10;77.40;;;;;;8299855;28;20216;-74
2021/05/04 07:44:32;;;;;;;1.63;1.53;;;13.30;76.70;;;;;;8276528;28;20462;-74
2021/05/04 07:48:34;;;;;;;1.57;1.47;;;13.30;76.50;;;;;;8300306;28;20872;-74
2021/05/04 07:52:38;;;;;;;1.40;1.30;;;13.50;76.10;;;;;;8302716;28;20216;-75
2021/05/04 07:56:39;;;;;;;2.80;1.30;;;13.60;75.50;;;;;;8297322;28;20473;-74
2021/05/04 08:00:41;;;;;;;2.10;2.00;;;13.80;75.40;;;;;;8295430;28;20920;-75
2021/05/04 08:04:46;;;;;;;1.90;1.80;;;14.00;74.70;;;;;;8303843;28;20444;-76
2021/05/04 08:08:47;;;;;;;4.47;2.07;;;14.20;74.10;;;;;;8297976;28;20764;-75
2021/05/04 08:12:48;;;;;;;1.10;1.00;;;14.50;73.90;;;;;;8300800;28;20482;-76
2021/05/04 08:16:50;;;;;;;1.40;1.30;;;14.80;72.30;;;;;;8293721;28;20451;-74
2021/05/04 08:20:53;;;;;;;1.50;1.23;;;14.80;72.10;;;;;;8292135;28;20297;-75
2021/05/04 08:24:55;;;;;;;1.60;1.50;;;14.80;72.80;;;;;;8320007;28;20442;-75
2021/05/04 08:28:56;;;;;;;1.73;1.63;;;14.80;72.50;;;;;;8300453;28;20507;-75
2021/05/04 08:33:00;;;;;;;2.37;2.17;;;15.00;72.00;;;;;;8296796;28;20474;-74
2021/05/04 08:37:03;;;;;;;1.63;1.53;;;15.20;71.60;;;;;;8281371;28;20438;-75
2021/05/04 08:41:07;;;;;;;1.67;1.40;;;15.40;70.40;;;;;;8300218;28;20439;-74
2021/05/04 08:45:13;;;;;;;1.53;1.43;;;15.60;70.20;;;;;;8298986;28;20431;-76
2021/05/04 08:49:15;;;;;;;2.30;1.40;;;15.90;69.10;;;;;;8297180;28;20438;-76
2021/05/04 08:53:18;;;;;;;1.90;1.70;;;16.20;68.00;;;;;;8288763;28;20821;-76
2021/05/04 08:57:19;;;;;;;3.73;1.50;;;16.80;67.20;;;;;;8297957;28;20442;-73
2021/05/04 09:01:19;;;;;;;3.80;1.83;;;17.60;64.90;;;;;;8297007;28;20520;-72
2021/05/04 09:05:23;;;;;;;2.20;1.57;;;18.30;62.20;;;;;;8292761;28;20645;-74
2021/05/04 09:13:40;;;;;;;2.30;1.77;;;18.40;61.40;;;;;;8277653;28;20977;-71
2021/05/04 09:17:48;;;;;;;1.40;1.30;;;18.80;60.30;;;;;;8311992;28;20459;-72
2021/05/04 09:21:48;;;;;;;1.80;1.63;;;19.00;60.10;;;;;;8295030;28;20848;-72
2021/05/04 09:25:57;;;;;;;2.97;1.47;;;19.40;59.00;;;;;;8310103;28;20489;-72
2021/05/04 09:30:01;;;;;;;2.87;1.80;;;19.40;56.60;;;;;;8295090;28;20441;-72
2021/05/04 09:34:14;;;;;;;1.57;1.43;;;19.30;57.00;;;;;;8289126;28;20342;-72
2021/05/04 09:38:19;;;;;;;3.30;1.40;;;18.80;57.60;;;;;;8290305;28;20446;-74
2021/05/04 09:42:35;;;;;;;3.20;1.50;;;18.00;60.10;;;;;;8296359;28;20527;-72
2021/05/04 09:46:49;;;;;;;2.27;1.50;;;17.30;62.70;;;;;;8298123;28;20437;-73
2021/05/04 09:51:04;;;;;;;2.60;1.03;;;17.40;63.30;;;;;;8292538;28;20554;-72
2021/05/04 09:55:15;;;;;;;1.33;1.23;;;18.60;62.90;;;;;;8290221;28;20477;-72
2021/05/04 09:59:16;;;;;;;2.70;1.10;;;19.80;58.70;;;;;;8292558;28;20437;-72
2021/05/04 10:03:17;;;;;;;1.50;1.40;;;19.60;57.00;;;;;;8292284;28;21012;-72
2021/05/04 10:07:23;;;;;;;1.97;1.20;;;19.10;58.70;;;;;;8294069;28;20812;-73
2021/05/04 10:11:24;;;;;;;2.97;1.00;;;19.60;58.00;;;;;;8295220;28;20820;-71
2021/05/04 10:15:26;;;;;;;2.60;1.00;;;20.00;56.60;;;;;;8303495;28;21067;-72
2021/05/04 10:19:27;;;;;;;2.80;1.10;;;20.70;56.20;;;;;;8300101;28;20547;-72
2021/05/04 10:23:30;;;;;;;3.40;2.10;;;21.30;53.60;;;;;;8295902;28;20624;-71
2021/05/04 10:27:33;;;;;;;3.67;1.80;;;20.80;53.80;;;;;;8320672;28;20425;-72
2021/05/04 10:31:39;;;;;;;1.23;1.13;;;20.10;54.30;;;;;;8310223;28;20814;-71
2021/05/04 10:35:48;;;;;;;2.67;1.40;;;19.50;55.90;;;;;;8290113;28;20468;-73
2021/05/04 10:39:50;;;;;;;1.87;1.50;;;19.40;57.40;;;;;;8313527;28;20469;-71
2021/05/04 10:44:19;;;;;;;3.40;1.37;;;20.10;55.20;;;;;;8290797;28;20471;-72
2021/05/04 10:48:49;;;;;;;1.70;1.10;;;20.80;52.90;;;;;;8304879;28;20475;-73
2021/05/04 10:52:56;;;;;;;6.33;1.23;;;20.80;52.50;;;;;;8288915;28;20508;-72
2021/05/04 10:56:59;;;;;;;3.80;1.70;;;20.80;52.00;;;;;;8295387;28;21068;-72
2021/05/04 11:01:07;;;;;;;4.27;2.20;;;21.10;51.30;;;;;;8302652;28;20425;-72
2021/05/04 11:05:47;;;;;;;4.40;1.37;;;21.20;51.30;;;;;;8303898;28;20948;-70
2021/05/04 11:10:11;;;;;;;4.37;2.33;;;21.40;50.40;;;;;;8299192;28;20786;-71
2021/05/04 11:14:21;;;;;;;4.53;1.73;;;21.40;50.60;;;;;;8300145;28;20463;-72
2021/05/04 11:19:07;;;;;;;4.10;2.40;;;21.50;51.60;;;;;;8299630;28;20469;-72
2021/05/04 11:23:09;;;;;;;4.63;1.67;;;22.20;49.40;;;;;;8289484;28;20564;-70
2021/05/04 11:27:10;;;;;;;3.20;1.57;;;22.00;48.20;;;;;;8296857;28;20451;-71
2021/05/04 11:31:41;;;;;;;4.93;3.83;;;21.60;49.30;;;;;;8299041;28;20536;-71
2021/05/04 11:35:43;;;;;;;5.53;1.70;;;21.30;47.40;;;;;;8316105;28;20357;-71
2021/05/04 11:39:57;;;;;;;6.33;1.70;;;20.70;48.70;;;;;;8297899;28;20461;-71
2021/05/04 11:43:58;;;;;;;5.63;2.17;;;20.80;48.90;;;;;;8290987;28;20453;-71
2021/05/04 11:48:07;;;;;;;4.10;2.00;;;21.30;47.80;;;;;;8291673;28;20477;-71
2021/05/04 11:52:09;;;;;;;3.80;2.00;;;21.60;46.30;;;;;;8291999;28;20227;-71
2021/05/04 11:56:11;;;;;;;9.83;2.17;;;21.40;45.40;;;;;;8293023;28;21141;-71
2021/05/04 12:00:20;;;;;;;13.83;2.60;;;21.60;43.80;;;;;;8288637;28;20446;-71
2021/05/04 12:04:40;;;;;;;4.47;1.80;;;21.20;45.10;;;;;;8282799;28;20451;-71
2021/05/04 12:08:42;;;;;;;9.97;2.90;;;20.70;47.50;;;;;;8286304;28;20482;-71
2021/05/04 12:12:48;;;;;;;5.17;2.10;;;20.00;46.20;;;;;;8290665;28;20486;-70
2021/05/04 12:16:52;;;;;;;7.17;2.03;;;19.60;46.80;;;;;;8291885;28;20430;-71
2021/05/04 12:21:00;;;;;;;6.40;2.60;;;19.70;46.60;;;;;;8300918;28;20445;-71
2021/05/04 12:25:01;;;;;;;6.23;1.90;;;20.50;45.40;;;;;;8283918;28;20451;-69
2021/05/04 12:29:04;;;;;;;15.13;2.83;;;20.70;43.10;;;;;;8290464;28;20570;-70
2021/05/04 12:33:05;;;;;;;3.10;1.80;;;20.60;44.00;;;;;;8276447;28;20231;-70
2021/05/04 12:37:14;;;;;;;11.73;2.47;;;20.50;44.10;;;;;;8277944;28;20438;-70
2021/05/04 12:41:19;;;;;;;4.70;2.03;;;20.20;44.60;;;;;;8280828;28;20188;-71
2021/05/04 12:45:20;;;;;;;7.67;2.13;;;19.60;44.70;;;;;;8277225;28;20465;-72
2021/05/04 12:49:44;;;;;;;8.93;2.10;;;19.00;44.90;;;;;;8299236;28;20938;-71
2021/05/04 12:53:46;;;;;;;5.33;2.00;;;18.70;46.30;;;;;;8287947;28;20651;-70
2021/05/04 12:58:13;;;;;;;7.60;1.90;;;19.10;46.20;;;;;;8281996;28;20467;-70
2021/05/04 13:02:34;;;;;;;11.90;2.70;;;20.00;42.60;;;;;;8286334;28;21230;-72
2021/05/04 13:06:50;;;;;;;11.50;2.80;;;20.80;43.40;;;;;;8292119;28;20447;-71
2021/05/04 13:10:58;;;;;;;10.27;3.00;;;21.60;41.20;;;;;;8288759;28;20486;-71
2021/05/04 13:32:23;;;;;;;13.00;3.77;;;20.10;40.90;;;;;;8290117;28;20467;-71
2021/05/04 13:36:24;;;;;;;11.80;2.10;;;19.70;42.70;;;;;;8307738;28;20212;-72
2021/05/04 13:49:07;;;;;;;7.13;2.10;;;19.50;44.50;;;;;;8249001;28;20877;-71
2021/05/04 13:53:08;;;;;;;11.30;2.97;;;19.20;45.60;;;;;;8294794;28;20477;-70
2021/05/04 13:57:09;;;;;;;4.30;2.10;;;18.50;48.10;;;;;;8295861;28;20198;-71
2021/05/04 14:26:59;;;;;;;5.17;2.43;;;18.00;50.40;;;;;;8281875;28;20526;-72
2021/05/04 14:31:00;;;;;;;5.67;2.10;;;18.50;48.00;;;;;;8300891;28;20454;-71
2021/05/04 14:35:03;;;;;;;7.50;2.33;;;18.80;45.00;;;;;;8270912;28;20488;-72
2021/05/04 15:04:24;;;;;;;9.43;2.40;;;17.60;50.30;;;;;;8297151;28;20463;-72
2021/05/04 15:08:26;;;;;;;5.73;2.10;;;17.10;55.80;;;;;;8270828;28;20520;-72
2021/05/04 15:12:28;;;;;;;8.17;2.70;;;16.60;55.60;;;;;;8290538;28;20226;-71
2021/05/04 15:16:40;;;;;;;2.90;2.00;;;16.40;57.10;;;;;;8309728;28;20447;-72
2021/05/04 15:21:02;;;;;;;6.43;2.23;;;16.80;58.80;;;;;;8314659;28;20539;-72
2021/05/04 15:25:03;;;;;;;5.57;2.13;;;17.40;57.60;;;;;;8303054;28;20435;-71
2021/05/04 15:29:05;;;;;;;4.50;1.93;;;17.90;56.10;;;;;;8289389;28;21629;-72
2021/05/04 15:33:09;;;;;;;11.20;2.37;;;18.20;55.80;;;;;;8284901;28;21157;-71
2021/05/04 15:37:10;;;;;;;10.50;3.00;;;18.30;55.10;;;;;;8271890;28;20634;-72
2021/05/04 15:41:12;;;;;;;5.70;2.53;;;18.00;53.20;;;;;;8280178;28;20445;-70
2021/05/04 15:45:19;;;;;;;6.43;2.60;;;17.50;55.70;;;;;;8306388;28;20450;-72
2021/05/04 15:54:05;;;;;;;7.40;2.33;;;17.40;59.80;;;;;;8308936;28;20467;-72
2021/05/04 16:06:40;;;;;;;11.40;2.60;;;17.50;57.60;;;;;;8294098;28;20443;-73
2021/05/04 16:10:42;;;;;;;16.33;4.23;;;17.30;57.70;;;;;;8308991;28;20442;-72
2021/05/04 16:14:46;;;;;;;5.33;2.77;;;17.10;57.80;;;;;;8279873;28;20557;-72
2021/05/04 16:23:36;;;;;;;12.47;3.80;;;17.10;57.00;;;;;;8302329;28;20226;-72
2021/05/04 16:27:38;;;;;;;6.03;2.30;;;17.10;55.00;;;;;;8296507;28;20584;-72
2021/05/04 16:31:40;;;;;;;8.47;3.30;;;16.90;53.30;;;;;;8293336;28;20442;-73
2021/05/04 16:35:43;;;;;;;12.73;2.17;;;16.70;52.60;;;;;;8276359;28;21164;-72
2021/05/04 16:39:45;;;;;;;6.80;2.50;;;16.70;52.10;;;;;;8303317;28;20435;-71
2021/05/04 16:43:46;;;;;;;3.00;1.90;;;16.90;51.20;;;;;;8296183;28;20473;-72
2021/05/04 16:47:51;;;;;;;3.20;1.30;;;17.40;47.00;;;;;;8277317;28;20466;-73
2021/05/04 16:51:52;;;;;;;10.43;2.03;;;17.40;44.90;;;;;;8288718;28;20429;-72
2021/05/04 16:55:53;;;;;;;3.77;1.33;;;17.20;42.70;;;;;;8288689;28;20454;-71
2021/05/04 17:00:01;;;;;;;1.63;1.53;;;17.10;41.60;;;;;;8295583;28;20545;-73
2021/05/04 17:04:03;;;;;;;4.73;1.73;;;17.10;42.00;;;;;;8309519;28;20195;-74
2021/05/04 17:12:27;;;;;;;2.07;1.53;;;17.00;41.70;;;;;;8336304;28;20967;-74
2021/05/04 17:16:28;;;;;;;1.67;1.10;;;17.00;40.70;;;;;;8296913;28;20452;-73
2021/05/04 17:20:31;;;;;;;3.20;1.23;;;17.00;40.80;;;;;;8313836;28;20557;-73
2021/05/04 17:24:34;;;;;;;8.53;1.23;;;16.90;41.00;;;;;;8294384;28;20485;-73
2021/05/04 17:28:45;;;;;;;2.90;2.43;;;16.90;41.40;;;;;;8330632;28;20450;-74
2021/05/04 17:32:46;;;;;;;7.20;2.20;;;16.80;42.40;;;;;;8314115;28;20470;-73
2021/05/04 17:36:48;;;;;;;5.10;1.77;;;16.80;42.10;;;;;;8313977;28;20510;-73
2021/05/04 17:40:54;;;;;;;2.90;1.43;;;16.70;42.90;;;;;;8315753;28;20546;-73
2021/05/04 17:44:57;;;;;;;4.53;1.53;;;16.50;43.10;;;;;;8308927;28;20448;-73
2021/05/04 17:48:58;;;;;;;4.37;1.60;;;16.40;41.60;;;;;;8297260;28;20536;-75
2021/05/04 17:53:13;;;;;;;3.07;1.43;;;16.30;42.40;;;;;;8306793;28;20514;-73
2021/05/04 17:57:17;;;;;;;5.17;2.10;;;16.20;42.40;;;;;;8306492;28;20471;-73
2021/05/04 18:01:18;;;;;;;5.10;2.27;;;16.10;43.50;;;;;;8311156;28;20506;-74
2021/05/04 18:05:21;;;;;;;6.90;2.00;;;16.00;43.00;;;;;;8306571;28;20821;-74
2021/05/04 18:09:26;;;;;;;2.60;1.70;;;15.80;43.60;;;;;;8326393;28;20204;-73
2021/05/04 18:22:10;;;;;;;3.47;1.77;;;15.20;42.80;;;;;;8324845;28;20936;-74
2021/05/04 18:26:12;;;;;;;11.13;1.57;;;15.10;42.30;;;;;;8312804;28;20473;-72
2021/05/04 18:30:21;;;;;;;4.40;2.10;;;14.90;43.10;;;;;;8319778;28;20455;-75
2021/05/04 18:34:31;;;;;;;3.40;2.40;;;14.80;43.50;;;;;;8323177;28;20527;-74
2021/05/04 18:39:08;;;;;;;7.47;2.13;;;14.70;44.00;;;;;;8317326;28;20918;-72
2021/05/04 18:43:39;;;;;;;4.50;2.03;;;14.60;46.30;;;;;;8322111;28;20449;-74
2021/05/04 18:56:52;;;;;;;3.43;2.87;;;13.00;64.90;;;;;;8312007;28;20449;-73
2021/05/04 20:13:54;;;;;;;17.67;7.40;;;9.50;86.00;;;;;;8339144;28;20529;-74
2021/05/04 20:17:57;;;;;;;6.50;5.90;;;9.40;85.90;;;;;;8319869;28;20478;-74
2021/05/04 20:21:59;;;;;;;6.73;5.10;;;9.30;86.70;;;;;;8343117;28;20957;-74
2021/05/04 20:26:01;;;;;;;4.90;4.50;;;9.30;87.40;;;;;;8320400;28;21109;-73
2021/05/04 20:30:02;;;;;;;6.13;5.63;;;9.30;87.60;;;;;;8317111;28;20504;-73
2021/05/04 20:34:06;;;;;;;10.53;5.70;;;9.20;87.50;;;;;;8315662;28;20468;-73
2021/05/04 20:38:07;;;;;;;8.80;5.30;;;9.20;87.90;;;;;;8339860;28;20523;-73
2021/05/04 20:42:07;;;;;;;6.00;5.40;;;9.10;88.30;;;;;;8316624;28;20434;-73
2021/05/04 20:46:08;;;;;;;6.60;5.00;;;9.10;88.20;;;;;;8318033;28;20446;-73
2021/05/04 20:50:14;;;;;;;11.23;5.27;;;9.00;88.20;;;;;;8323679;28;20228;-73
2021/05/04 20:54:15;;;;;;;8.60;7.20;;;9.00;88.30;;;;;;8321728;28;20221;-73
2021/05/04 20:58:19;;;;;;;5.70;5.10;;;8.90;89.60;;;;;;8321277;28;20462;-73
2021/05/04 21:02:20;;;;;;;10.00;5.70;;;8.90;89.40;;;;;;8320772;28;20173;-73
2021/05/04 21:06:23;;;;;;;6.03;5.20;;;8.80;89.70;;;;;;8326751;28;20447;-73
2021/05/04 21:15:09;;;;;;;6.13;4.70;;;8.80;89.50;;;;;;8339895;28;20477;-73
2021/05/04 21:19:17;;;;;;;9.10;4.90;;;8.80;89.40;;;;;;8348701;28;20457;-73
2021/05/04 21:27:37;;;;;;;7.13;4.83;;;8.70;89.40;;;;;;8345425;28;20816;-74
2021/05/04 21:31:41;;;;;;;7.07;5.60;;;8.60;89.60;;;;;;8326422;28;20438;-73
2021/05/04 21:35:42;;;;;;;8.40;6.20;;;8.50;89.60;;;;;;8315521;28;20278;-73
2021/05/04 21:39:48;;;;;;;12.20;6.70;;;8.50;89.80;;;;;;8319161;28;20443;-73
2021/05/04 21:43:49;;;;;;;7.50;5.63;;;8.40;90.10;;;;;;8326869;28;20625;-72
2021/05/04 21:47:51;;;;;;;5.80;5.30;;;8.30;90.40;;;;;;8318723;28;20447;-73
2021/05/04 21:51:52;;;;;;;9.20;5.27;;;8.30;90.40;;;;;;8325899;28;20489;-73
2021/05/04 21:55:53;;;;;;;10.30;7.70;;;8.30;90.50;;;;;;8327065;28;20492;-73
2021/05/04 21:59:53;;;;;;;9.87;6.27;;;8.20;90.50;;;;;;8327016;28;20451;-73
2021/05/04 22:03:54;;;;;;;5.83;5.17;;;8.20;90.60;;;;;;8330297;28;20898;-72
2021/05/04 22:07:56;;;;;;;6.13;5.40;;;8.10;90.60;;;;;;8329584;28;20187;-72
2021/05/04 22:12:06;;;;;;;10.83;5.77;;;8.10;90.80;;;;;;8331134;28;20435;-72
2021/05/04 22:37:46;;;;;;;12.90;5.73;;;7.70;90.90;;;;;;8333760;28;20450;-73
2021/05/04 22:41:50;;;;;;;6.87;4.87;;;7.60;91.00;;;;;;8308754;28;20478;-74
2021/05/04 23:16:29;;;;;;;5.83;4.63;;;6.70;92.00;;;;;;8260538;28;20445;-73
2021/05/04 23:20:29;;;;;;;13.60;4.33;;;6.70;91.70;;;;;;8298223;28;20471;-74
2021/05/04 23:24:30;;;;;;;7.60;4.00;;;6.80;91.50;;;;;;8327026;28;20613;-72
2021/05/04 23:28:31;;;;;;;12.50;4.97;;;6.80;91.20;;;;;;8304806;28;20196;-73
2021/05/04 23:32:37;;;;;;;8.80;4.30;;;6.90;90.80;;;;;;8344881;28;20459;-72
2021/05/04 23:36:41;;;;;;;4.93;2.60;;;7.00;90.60;;;;;;8345047;28;20535;-73
2021/05/04 23:40:45;;;;;;;8.47;3.40;;;7.30;90.20;;;;;;8338833;28;20979;-72
2021/05/04 23:44:46;;;;;;;11.53;2.80;;;7.60;89.20;;;;;;8326819;28;20449;-73
2021/05/04 23:48:51;;;;;;;9.03;2.77;;;8.00;88.00;;;;;;8344872;28;20184;-73
2021/05/04 23:52:55;;;;;;;6.73;2.50;;;8.30;86.50;;;;;;8334672;28;20463;-72
2021/05/04 23:56:55;;;;;;;8.33;2.73;;;8.60;85.10;;;;;;8325012;28;20473;-72
